sensor_id;sensor_type;location;lat;lon;timestamp;pressure;altitude;pressure_sealevel;temperature;humidity
68075;BME280;54864;52.002;5.468;2023-03-14T00:00:07;98733.97;;;13.26;65.02
68075;BME280;54864;52.002;5.468;2023-03-14T00:01:10;98739.25;;;13.17;65.06
68075;BME280;54864;52.002;5.468;2023-03-14T00:02:12;98736.13;;;13.12;65.45
68075;BME280;54864;52.002;5.468;2023-03-14T00:03:13;98739.47;;;13.04;65.49
68075;BME280;54864;52.002;5.468;2023-03-14T00:04:15;98737.94;;;13.11;65.26
68075;BME280;54864;52.002;5.468;2023-03-14T00:05:16;98738.91;;;13.00;64.74
68075;BME280;54864;52.002;5.468;2023-03-14T00:06:18;98736.59;;;12.86;65.75
68075;BME280;54864;52.002;5.468;2023-03-14T00:07:19;98754.59;;;12.92;65.47
68075;BME280;54864;52.002;5.468;2023-03-14T00:08:20;98738.28;;;12.87;65.53
68075;BME280;54864;52.002;5.468;2023-03-14T00:09:21;98737.47;;;12.96;65.33
68075;BME280;54864;52.002;5.468;2023-03-14T00:10:25;98745.59;;;13.05;65.15
68075;BME280;54864;52.002;5.468;2023-03-14T00:11:25;98740.78;;;12.89;65.50
68075;BME280;54864;52.002;5.468;2023-03-14T00:12:27;98735.78;;;12.95;65.29
68075;BME280;54864;52.002;5.468;2023-03-14T00:13:28;98734.38;;;12.82;65.39
68075;BME280;54864;52.002;5.468;2023-03-14T00:14:31;98737.00;;;12.72;65.87
68075;BME280;54864;52.002;5.468;2023-03-14T00:15:32;98739.38;;;12.85;66.04
68075;BME280;54864;52.002;5.468;2023-03-14T00:16:34;98731.03;;;12.80;65.43
68075;BME280;54864;52.002;5.468;2023-03-14T00:17:35;98734.50;;;12.80;65.38
68075;BME280;54864;52.002;5.468;2023-03-14T00:18:38;98731.69;;;12.72;65.67
68075;BME280;54864;52.002;5.468;2023-03-14T00:19:38;98726.00;;;12.77;65.58
68075;BME280;54864;52.002;5.468;2023-03-14T00:20:40;98736.59;;;12.77;65.26
68075;BME280;54864;52.002;5.468;2023-03-14T00:21:41;98732.53;;;12.73;65.78
68075;BME280;54864;52.002;5.468;2023-03-14T00:22:43;98733.38;;;12.73;65.75
68075;BME280;54864;52.002;5.468;2023-03-14T00:23:44;98736.03;;;12.83;65.20
68075;BME280;54864;52.002;5.468;2023-03-14T00:24:46;98737.16;;;12.80;65.25
68075;BME280;54864;52.002;5.468;2023-03-14T00:25:48;98733.84;;;12.88;64.96
68075;BME280;54864;52.002;5.468;2023-03-14T00:26:50;98725.91;;;12.88;65.17
68075;BME280;54864;52.002;5.468;2023-03-14T00:27:51;98743.28;;;12.81;65.31
68075;BME280;54864;52.002;5.468;2023-03-14T00:28:53;98740.66;;;12.90;65.30
68075;BME280;54864;52.002;5.468;2023-03-14T00:29:55;98736.34;;;12.99;65.25
68075;BME280;54864;52.002;5.468;2023-03-14T00:30:56;98745.41;;;12.96;65.18
68075;BME280;54864;52.002;5.468;2023-03-14T00:32:06;98740.56;;;13.01;65.02
68075;BME280;54864;52.002;5.468;2023-03-14T00:33:07;98745.88;;;13.01;64.40
68075;BME280;54864;52.002;5.468;2023-03-14T00:34:09;98750.38;;;12.80;64.61
68075;BME280;54864;52.002;5.468;2023-03-14T00:35:10;98742.16;;;12.83;64.93
68075;BME280;54864;52.002;5.468;2023-03-14T00:36:13;98737.41;;;12.77;64.76
68075;BME280;54864;52.002;5.468;2023-03-14T00:37:14;98748.56;;;12.81;64.74
68075;BME280;54864;52.002;5.468;2023-03-14T00:38:16;98744.78;;;12.74;64.63
68075;BME280;54864;52.002;5.468;2023-03-14T00:39:17;98741.88;;;12.77;64.59
68075;BME280;54864;52.002;5.468;2023-03-14T00:40:19;98743.94;;;12.73;65.11
68075;BME280;54864;52.002;5.468;2023-03-14T00:41:22;98737.91;;;12.61;65.02
68075;BME280;54864;52.002;5.468;2023-03-14T00:42:24;98736.84;;;12.74;64.94
68075;BME280;54864;52.002;5.468;2023-03-14T00:43:25;98730.16;;;12.69;65.57
68075;BME280;54864;52.002;5.468;2023-03-14T00:44:27;98746.78;;;12.51;65.44
68075;BME280;54864;52.002;5.468;2023-03-14T00:45:28;98747.63;;;12.51;65.23
68075;BME280;54864;52.002;5.468;2023-03-14T00:46:29;98750.66;;;12.47;65.63
68075;BME280;54864;52.002;5.468;2023-03-14T00:47:30;98750.97;;;12.53;65.34
68075;BME280;54864;52.002;5.468;2023-03-14T00:48:32;98745.50;;;12.45;65.85
68075;BME280;54864;52.002;5.468;2023-03-14T00:49:33;98747.25;;;12.35;65.97
68075;BME280;54864;52.002;5.468;2023-03-14T00:50:35;98737.91;;;12.31;65.85
68075;BME280;54864;52.002;5.468;2023-03-14T00:51:36;98751.38;;;12.28;66.35
68075;BME280;54864;52.002;5.468;2023-03-14T00:52:37;98753.06;;;12.29;66.54
68075;BME280;54864;52.002;5.468;2023-03-14T00:53:39;98752.03;;;12.20;66.45
68075;BME280;54864;52.002;5.468;2023-03-14T00:54:41;98760.78;;;12.21;66.76
68075;BME280;54864;52.002;5.468;2023-03-14T00:55:43;98755.78;;;12.18;66.67
68075;BME280;54864;52.002;5.468;2023-03-14T00:56:46;98751.97;;;12.11;67.15
68075;BME280;54864;52.002;5.468;2023-03-14T00:57:47;98747.66;;;12.10;66.92
68075;BME280;54864;52.002;5.468;2023-03-14T00:58:48;98753.41;;;12.15;66.87
68075;BME280;54864;52.002;5.468;2023-03-14T00:59:51;98755.00;;;12.06;67.05
68075;BME280;54864;52.002;5.468;2023-03-14T01:00:53;98755.53;;;12.00;67.50
68075;BME280;54864;52.002;5.468;2023-03-14T01:01:54;98754.69;;;11.79;68.37
68075;BME280;54864;52.002;5.468;2023-03-14T01:02:56;98755.66;;;11.78;69.19
68075;BME280;54864;52.002;5.468;2023-03-14T01:03:56;98755.34;;;11.92;69.21
68075;BME280;54864;52.002;5.468;2023-03-14T01:05:03;98750.59;;;11.74;69.80
68075;BME280;54864;52.002;5.468;2023-03-14T01:06:10;98745.53;;;11.83;70.21
68075;BME280;54864;52.002;5.468;2023-03-14T01:07:12;98752.81;;;11.90;70.01
68075;BME280;54864;52.002;5.468;2023-03-14T01:08:12;98748.56;;;11.78;69.91
68075;BME280;54864;52.002;5.468;2023-03-14T01:09:14;98745.34;;;11.95;69.92
68075;BME280;54864;52.002;5.468;2023-03-14T01:10:18;98749.03;;;11.83;70.24
68075;BME280;54864;52.002;5.468;2023-03-14T01:11:22;98753.53;;;11.92;70.01
68075;BME280;54864;52.002;5.468;2023-03-14T01:12:24;98763.72;;;11.97;70.02
68075;BME280;54864;52.002;5.468;2023-03-14T01:13:26;98754.69;;;11.99;69.58
68075;BME280;54864;52.002;5.468;2023-03-14T01:14:27;98763.59;;;11.98;69.62
68075;BME280;54864;52.002;5.468;2023-03-14T01:15:28;98764.59;;;11.86;70.45
68075;BME280;54864;52.002;5.468;2023-03-14T01:16:31;98768.59;;;11.81;71.35
68075;BME280;54864;52.002;5.468;2023-03-14T01:17:33;98768.53;;;11.92;71.68
68075;BME280;54864;52.002;5.468;2023-03-14T01:18:34;98758.44;;;11.97;72.01
68075;BME280;54864;52.002;5.468;2023-03-14T01:19:36;98774.22;;;11.76;74.21
68075;BME280;54864;52.002;5.468;2023-03-14T01:20:38;98773.41;;;11.75;75.43
68075;BME280;54864;52.002;5.468;2023-03-14T01:21:39;98775.78;;;11.67;76.34
68075;BME280;54864;52.002;5.468;2023-03-14T01:22:41;98779.00;;;11.50;77.81
68075;BME280;54864;52.002;5.468;2023-03-14T01:23:43;98780.03;;;11.27;79.44
68075;BME280;54864;52.002;5.468;2023-03-14T01:24:45;98776.38;;;11.39;80.47
68075;BME280;54864;52.002;5.468;2023-03-14T01:25:45;98784.75;;;11.44;80.88
68075;BME280;54864;52.002;5.468;2023-03-14T01:26:47;98787.91;;;11.38;81.12
68075;BME280;54864;52.002;5.468;2023-03-14T01:27:49;98777.47;;;11.36;81.39
68075;BME280;54864;52.002;5.468;2023-03-14T01:28:52;98792.63;;;11.23;82.21
68075;BME280;54864;52.002;5.468;2023-03-14T01:29:53;98792.66;;;11.12;82.99
68075;BME280;54864;52.002;5.468;2023-03-14T01:30:55;98786.53;;;11.11;84.11
68075;BME280;54864;52.002;5.468;2023-03-14T01:31:56;98784.63;;;11.14;84.08
68075;BME280;54864;52.002;5.468;2023-03-14T01:32:58;98786.78;;;11.08;84.70
68075;BME280;54864;52.002;5.468;2023-03-14T01:34:01;98786.06;;;11.06;84.93
68075;BME280;54864;52.002;5.468;2023-03-14T01:35:04;98793.00;;;11.19;85.27
68075;BME280;54864;52.002;5.468;2023-03-14T01:36:06;98788.81;;;11.16;86.00
68075;BME280;54864;52.002;5.468;2023-03-14T01:37:08;98787.00;;;11.17;85.71
68075;BME280;54864;52.002;5.468;2023-03-14T01:38:09;98780.88;;;11.27;85.25
68075;BME280;54864;52.002;5.468;2023-03-14T01:39:11;98787.44;;;11.33;85.09
68075;BME280;54864;52.002;5.468;2023-03-14T01:40:13;98775.72;;;11.26;85.02
68075;BME280;54864;52.002;5.468;2023-03-14T01:41:18;98766.97;;;11.03;86.31
68075;BME280;54864;52.002;5.468;2023-03-14T01:42:20;98768.44;;;11.07;86.65
68075;BME280;54864;52.002;5.468;2023-03-14T01:43:23;98776.56;;;11.04;86.77
68075;BME280;54864;52.002;5.468;2023-03-14T01:44:24;98767.69;;;11.05;86.62
68075;BME280;54864;52.002;5.468;2023-03-14T01:47:20;98771.91;;;10.96;87.91
68075;BME280;54864;52.002;5.468;2023-03-14T01:48:21;98753.09;;;10.90;87.61
68075;BME280;54864;52.002;5.468;2023-03-14T01:49:26;98766.75;;;10.95;87.70
68075;BME280;54864;52.002;5.468;2023-03-14T01:50:31;98760.78;;;10.82;87.24
68075;BME280;54864;52.002;5.468;2023-03-14T01:51:36;98767.75;;;10.83;87.43
68075;BME280;54864;52.002;5.468;2023-03-14T01:52:43;98763.66;;;10.78;87.30
68075;BME280;54864;52.002;5.468;2023-03-14T01:53:45;98753.97;;;10.79;87.41
68075;BME280;54864;52.002;5.468;2023-03-14T01:54:51;98752.53;;;10.75;87.69
68075;BME280;54864;52.002;5.468;2023-03-14T01:55:55;98755.63;;;10.80;87.40
68075;BME280;54864;52.002;5.468;2023-03-14T01:57:04;98750.38;;;10.69;88.07
68075;BME280;54864;52.002;5.468;2023-03-14T01:58:08;98762.84;;;10.67;88.55
68075;BME280;54864;52.002;5.468;2023-03-14T01:59:11;98746.44;;;10.52;89.01
68075;BME280;54864;52.002;5.468;2023-03-14T02:00:16;98750.88;;;10.63;89.27
68075;BME280;54864;52.002;5.468;2023-03-14T02:01:18;98749.06;;;10.52;89.95
68075;BME280;54864;52.002;5.468;2023-03-14T02:02:23;98756.63;;;10.57;89.85
68075;BME280;54864;52.002;5.468;2023-03-14T02:03:27;98750.16;;;10.61;89.60
68075;BME280;54864;52.002;5.468;2023-03-14T02:04:32;98753.16;;;10.56;90.26
68075;BME280;54864;52.002;5.468;2023-03-14T02:05:38;98748.09;;;10.64;89.21
68075;BME280;54864;52.002;5.468;2023-03-14T02:06:46;98749.19;;;10.62;89.62
68075;BME280;54864;52.002;5.468;2023-03-14T02:07:52;98749.06;;;10.63;89.47
68075;BME280;54864;52.002;5.468;2023-03-14T02:08:53;98749.66;;;10.56;90.18
68075;BME280;54864;52.002;5.468;2023-03-14T02:09:56;98762.44;;;10.38;90.50
68075;BME280;54864;52.002;5.468;2023-03-14T02:11:01;98751.47;;;10.44;90.87
68075;BME280;54864;52.002;5.468;2023-03-14T02:12:03;98752.53;;;10.41;91.68
68075;BME280;54864;52.002;5.468;2023-03-14T02:13:06;98752.53;;;10.53;91.25
68075;BME280;54864;52.002;5.468;2023-03-14T02:14:16;98752.53;;;10.41;91.78
68075;BME280;54864;52.002;5.468;2023-03-14T02:15:19;98741.72;;;10.22;91.93
68075;BME280;54864;52.002;5.468;2023-03-14T02:16:19;98741.38;;;10.27;93.27
68075;BME280;54864;52.002;5.468;2023-03-14T02:17:22;98743.06;;;10.39;92.78
68075;BME280;54864;52.002;5.468;2023-03-14T02:18:25;98741.75;;;10.33;92.71
68075;BME280;54864;52.002;5.468;2023-03-14T02:19:37;98734.63;;;10.11;93.14
68075;BME280;54864;52.002;5.468;2023-03-14T02:20:47;98734.03;;;10.19;93.78
68075;BME280;54864;52.002;5.468;2023-03-14T02:21:54;98742.22;;;10.27;94.02
68075;BME280;54864;52.002;5.468;2023-03-14T02:22:59;98730.47;;;10.20;94.20
68075;BME280;54864;52.002;5.468;2023-03-14T02:24:09;98740.13;;;10.20;94.63
68075;BME280;54864;52.002;5.468;2023-03-14T02:25:18;98741.81;;;10.09;94.83
68075;BME280;54864;52.002;5.468;2023-03-14T02:26:27;98735.22;;;10.15;94.63
68075;BME280;54864;52.002;5.468;2023-03-14T02:27:30;98725.22;;;10.20;94.98
68075;BME280;54864;52.002;5.468;2023-03-14T02:28:32;98727.09;;;10.18;95.16
68075;BME280;54864;52.002;5.468;2023-03-14T02:29:39;98731.06;;;10.24;95.00
68075;BME280;54864;52.002;5.468;2023-03-14T02:30:42;98726.13;;;10.19;94.98
68075;BME280;54864;52.002;5.468;2023-03-14T02:31:43;98729.59;;;10.08;95.86
68075;BME280;54864;52.002;5.468;2023-03-14T02:32:48;98729.28;;;10.24;95.66
68075;BME280;54864;52.002;5.468;2023-03-14T02:33:50;98728.69;;;10.32;94.79
68075;BME280;54864;52.002;5.468;2023-03-14T02:34:55;98727.16;;;10.40;94.36
68075;BME280;54864;52.002;5.468;2023-03-14T02:35:59;98730.75;;;10.51;93.40
68075;BME280;54864;52.002;5.468;2023-03-14T02:37:03;98721.38;;;10.35;93.59
68075;BME280;54864;52.002;5.468;2023-03-14T02:38:10;98717.81;;;10.47;93.71
68075;BME280;54864;52.002;5.468;2023-03-14T02:39:21;98718.03;;;10.33;93.01
68075;BME280;54864;52.002;5.468;2023-03-14T02:40:25;98722.47;;;10.33;93.51
68075;BME280;54864;52.002;5.468;2023-03-14T02:41:26;98724.25;;;10.32;93.82
68075;BME280;54864;52.002;5.468;2023-03-14T02:42:27;98719.59;;;10.36;93.76
68075;BME280;54864;52.002;5.468;2023-03-14T02:43:30;98713.47;;;10.35;93.98
68075;BME280;54864;52.002;5.468;2023-03-14T02:44:31;98721.88;;;10.29;93.40
68075;BME280;54864;52.002;5.468;2023-03-14T02:45:36;98712.03;;;10.31;93.66
68075;BME280;54864;52.002;5.468;2023-03-14T02:46:37;98712.28;;;10.39;93.62
68075;BME280;54864;52.002;5.468;2023-03-14T02:47:43;98708.34;;;10.34;93.66
68075;BME280;54864;52.002;5.468;2023-03-14T02:48:47;98719.59;;;10.36;93.91
68075;BME280;54864;52.002;5.468;2023-03-14T02:49:52;98706.09;;;10.40;93.43
68075;BME280;54864;52.002;5.468;2023-03-14T02:50:56;98714.56;;;10.33;93.54
68075;BME280;54864;52.002;5.468;2023-03-14T02:52:01;98712.03;;;10.20;94.55
68075;BME280;54864;52.002;5.468;2023-03-14T02:53:03;98705.59;;;10.24;94.49
68075;BME280;54864;52.002;5.468;2023-03-14T02:54:05;98715.16;;;10.25;94.42
68075;BME280;54864;52.002;5.468;2023-03-14T02:55:06;98708.22;;;10.24;94.65
68075;BME280;54864;52.002;5.468;2023-03-14T02:56:08;98711.94;;;10.33;94.61
68075;BME280;54864;52.002;5.468;2023-03-14T02:57:09;98711.25;;;10.42;93.74
68075;BME280;54864;52.002;5.468;2023-03-14T02:58:12;98710.03;;;10.46;93.48
68075;BME280;54864;52.002;5.468;2023-03-14T02:59:14;98715.75;;;10.40;92.73
68075;BME280;54864;52.002;5.468;2023-03-14T03:00:16;98709.66;;;10.39;92.31
68075;BME280;54864;52.002;5.468;2023-03-14T03:01:17;98714.34;;;10.47;92.14
68075;BME280;54864;52.002;5.468;2023-03-14T03:02:19;98699.75;;;10.43;91.80
68075;BME280;54864;52.002;5.468;2023-03-14T03:03:20;98702.00;;;10.36;91.60
68075;BME280;54864;52.002;5.468;2023-03-14T03:04:21;98703.47;;;10.40;92.38
68075;BME280;54864;52.002;5.468;2023-03-14T03:05:22;98707.50;;;10.56;91.71
68075;BME280;54864;52.002;5.468;2023-03-14T03:06:24;98694.00;;;10.49;90.70
68075;BME280;54864;52.002;5.468;2023-03-14T03:07:24;98710.63;;;10.61;90.70
68075;BME280;54864;52.002;5.468;2023-03-14T03:08:27;98698.28;;;10.61;90.30
68075;BME280;54864;52.002;5.468;2023-03-14T03:09:28;98699.47;;;10.68;90.11
68075;BME280;54864;52.002;5.468;2023-03-14T03:10:31;98708.34;;;10.56;90.09
68075;BME280;54864;52.002;5.468;2023-03-14T03:11:31;98702.22;;;10.67;90.12
68075;BME280;54864;52.002;5.468;2023-03-14T03:12:33;98699.00;;;10.63;89.79
68075;BME280;54864;52.002;5.468;2023-03-14T03:13:34;98697.19;;;10.64;89.55
68075;BME280;54864;52.002;5.468;2023-03-14T03:14:37;98709.41;;;10.76;89.05
68075;BME280;54864;52.002;5.468;2023-03-14T03:15:38;98714.19;;;10.82;88.64
68075;BME280;54864;52.002;5.468;2023-03-14T03:16:40;98701.50;;;10.76;89.02
68075;BME280;54864;52.002;5.468;2023-03-14T03:17:41;98716.06;;;10.91;88.50
68075;BME280;54864;52.002;5.468;2023-03-14T03:18:43;98707.91;;;10.94;88.40
68075;BME280;54864;52.002;5.468;2023-03-14T03:19:43;98708.38;;;10.99;88.09
68075;BME280;54864;52.002;5.468;2023-03-14T03:20:45;98700.84;;;11.06;87.56
68075;BME280;54864;52.002;5.468;2023-03-14T03:21:46;98697.97;;;11.09;87.30
68075;BME280;54864;52.002;5.468;2023-03-14T03:22:48;98699.50;;;11.11;87.32
68075;BME280;54864;52.002;5.468;2023-03-14T03:23:50;98692.06;;;11.17;86.86
68075;BME280;54864;52.002;5.468;2023-03-14T03:24:52;98706.03;;;11.28;86.31
68075;BME280;54864;52.002;5.468;2023-03-14T03:25:52;98692.97;;;11.27;86.20
68075;BME280;54864;52.002;5.468;2023-03-14T03:26:54;98690.97;;;11.19;86.18
68075;BME280;54864;52.002;5.468;2023-03-14T03:27:55;98696.03;;;11.11;85.96
68075;BME280;54864;52.002;5.468;2023-03-14T03:28:57;98690.88;;;11.09;86.05
68075;BME280;54864;52.002;5.468;2023-03-14T03:29:59;98688.50;;;11.06;85.70
68075;BME280;54864;52.002;5.468;2023-03-14T03:31:08;98689.53;;;11.15;85.91
68075;BME280;54864;52.002;5.468;2023-03-14T03:32:08;98687.41;;;11.09;85.96
68075;BME280;54864;52.002;5.468;2023-03-14T03:33:11;98689.91;;;11.10;86.21
68075;BME280;54864;52.002;5.468;2023-03-14T03:34:12;98691.94;;;11.18;85.55
68075;BME280;54864;52.002;5.468;2023-03-14T03:35:15;98684.34;;;11.25;85.13
68075;BME280;54864;52.002;5.468;2023-03-14T03:36:20;98689.34;;;11.07;85.22
68075;BME280;54864;52.002;5.468;2023-03-14T03:37:22;98680.28;;;11.21;84.97
68075;BME280;54864;52.002;5.468;2023-03-14T03:38:23;98676.16;;;11.07;84.33
68075;BME280;54864;52.002;5.468;2023-03-14T03:39:25;98689.34;;;11.07;85.10
68075;BME280;54864;52.002;5.468;2023-03-14T03:40:26;98684.66;;;10.99;85.38
68075;BME280;54864;52.002;5.468;2023-03-14T03:41:28;98682.59;;;11.03;85.13
68075;BME280;54864;52.002;5.468;2023-03-14T03:42:29;98678.66;;;11.08;84.76
68075;BME280;54864;52.002;5.468;2023-03-14T03:43:31;98684.06;;;10.96;84.57
68075;BME280;54864;52.002;5.468;2023-03-14T03:44:32;98672.31;;;11.00;84.67
68075;BME280;54864;52.002;5.468;2023-03-14T03:45:35;98678.59;;;10.76;84.94
68075;BME280;54864;52.002;5.468;2023-03-14T03:46:36;98680.75;;;10.83;85.70
68075;BME280;54864;52.002;5.468;2023-03-14T03:47:37;98679.16;;;10.91;84.97
68075;BME280;54864;52.002;5.468;2023-03-14T03:48:38;98670.28;;;10.92;85.20
68075;BME280;54864;52.002;5.468;2023-03-14T03:49:40;98667.81;;;10.79;84.75
68075;BME280;54864;52.002;5.468;2023-03-14T03:50:44;98669.75;;;10.77;85.23
68075;BME280;54864;52.002;5.468;2023-03-14T03:51:46;98663.50;;;10.78;85.39
68075;BME280;54864;52.002;5.468;2023-03-14T03:52:46;98664.22;;;10.80;85.35
68075;BME280;54864;52.002;5.468;2023-03-14T03:53:48;98671.25;;;10.91;84.55
68075;BME280;54864;52.002;5.468;2023-03-14T03:54:49;98670.41;;;10.91;84.43
68075;BME280;54864;52.002;5.468;2023-03-14T03:55:51;98664.19;;;10.92;84.62
68075;BME280;54864;52.002;5.468;2023-03-14T03:56:51;98665.16;;;10.91;84.30
68075;BME280;54864;52.002;5.468;2023-03-14T03:57:53;98661.06;;;10.98;84.33
68075;BME280;54864;52.002;5.468;2023-03-14T03:58:54;98665.94;;;11.02;83.61
68075;BME280;54864;52.002;5.468;2023-03-14T03:59:56;98667.63;;;11.03;83.45
68075;BME280;54864;52.002;5.468;2023-03-14T04:00:58;98665.00;;;11.03;83.76
68075;BME280;54864;52.002;5.468;2023-03-14T04:02:02;98664.66;;;10.97;84.05
68075;BME280;54864;52.002;5.468;2023-03-14T04:03:03;98658.53;;;10.96;83.85
68075;BME280;54864;52.002;5.468;2023-03-14T04:04:05;98664.28;;;11.01;83.59
68075;BME280;54864;52.002;5.468;2023-03-14T04:05:06;98667.28;;;10.97;83.38
68075;BME280;54864;52.002;5.468;2023-03-14T04:06:10;98662.47;;;11.02;83.08
68075;BME280;54864;52.002;5.468;2023-03-14T04:07:11;98658.28;;;10.99;83.39
68075;BME280;54864;52.002;5.468;2023-03-14T04:08:14;98670.75;;;10.97;82.82
68075;BME280;54864;52.002;5.468;2023-03-14T04:09:15;98667.53;;;10.94;82.80
68075;BME280;54864;52.002;5.468;2023-03-14T04:10:17;98677.38;;;10.92;82.82
68075;BME280;54864;52.002;5.468;2023-03-14T04:11:18;98681.59;;;10.83;83.05
68075;BME280;54864;52.002;5.468;2023-03-14T04:12:19;98676.44;;;10.82;83.88
68075;BME280;54864;52.002;5.468;2023-03-14T04:13:20;98677.25;;;10.93;83.87
68075;BME280;54864;52.002;5.468;2023-03-14T04:14:22;98675.47;;;10.83;83.11
68075;BME280;54864;52.002;5.468;2023-03-14T04:15:23;98672.81;;;10.94;83.38
68075;BME280;54864;52.002;5.468;2023-03-14T04:16:26;98673.78;;;10.93;82.94
68075;BME280;54864;52.002;5.468;2023-03-14T04:17:27;98677.28;;;10.82;83.25
68075;BME280;54864;52.002;5.468;2023-03-14T04:18:29;98679.28;;;10.90;83.63
68075;BME280;54864;52.002;5.468;2023-03-14T04:19:30;98677.97;;;10.95;83.20
68075;BME280;54864;52.002;5.468;2023-03-14T04:20:34;98684.31;;;10.93;83.39
68075;BME280;54864;52.002;5.468;2023-03-14T04:21:34;98675.09;;;10.87;82.80
68075;BME280;54864;52.002;5.468;2023-03-14T04:22:36;98675.09;;;10.87;82.96
68075;BME280;54864;52.002;5.468;2023-03-14T04:23:37;98683.94;;;10.97;82.84
68075;BME280;54864;52.002;5.468;2023-03-14T04:24:39;98685.28;;;10.92;82.83
68075;BME280;54864;52.002;5.468;2023-03-14T04:25:39;98679.03;;;10.93;82.89
68075;BME280;54864;52.002;5.468;2023-03-14T04:26:41;98672.84;;;10.83;83.30
68075;BME280;54864;52.002;5.468;2023-03-14T04:27:42;98671.59;;;10.98;82.90
68075;BME280;54864;52.002;5.468;2023-03-14T04:28:44;98673.66;;;10.94;82.80
68075;BME280;54864;52.002;5.468;2023-03-14T04:29:45;98677.78;;;10.76;83.54
68075;BME280;54864;52.002;5.468;2023-03-14T04:30:47;98676.31;;;10.83;83.20
68075;BME280;54864;52.002;5.468;2023-03-14T04:31:49;98681.69;;;10.93;83.11
68075;BME280;54864;52.002;5.468;2023-03-14T04:32:51;98669.59;;;10.90;83.18
68075;BME280;54864;52.002;5.468;2023-03-14T04:33:51;98659.25;;;10.98;82.61
68075;BME280;54864;52.002;5.468;2023-03-14T04:34:54;98672.06;;;11.03;82.07
68075;BME280;54864;52.002;5.468;2023-03-14T04:35:55;98671.13;;;10.93;82.41
68075;BME280;54864;52.002;5.468;2023-03-14T04:36:57;98669.91;;;10.97;82.21
68075;BME280;54864;52.002;5.468;2023-03-14T04:37:58;98659.75;;;10.92;82.25
68075;BME280;54864;52.002;5.468;2023-03-14T04:39:02;98667.53;;;10.94;82.40
68075;BME280;54864;52.002;5.468;2023-03-14T04:40:05;98657.44;;;10.99;82.37
68075;BME280;54864;52.002;5.468;2023-03-14T04:41:07;98655.78;;;10.98;81.88
68075;BME280;54864;52.002;5.468;2023-03-14T04:42:08;98655.69;;;10.88;82.31
68075;BME280;54864;52.002;5.468;2023-03-14T04:43:10;98656.16;;;10.93;82.57
68075;BME280;54864;52.002;5.468;2023-03-14T04:44:11;98659.25;;;10.98;82.81
68075;BME280;54864;52.002;5.468;2023-03-14T04:45:13;98658.44;;;10.87;82.79
68075;BME280;54864;52.002;5.468;2023-03-14T04:46:14;98661.50;;;11.03;82.31
68075;BME280;54864;52.002;5.468;2023-03-14T04:47:17;98670.75;;;11.08;82.00
68075;BME280;54864;52.002;5.468;2023-03-14T04:48:18;98654.94;;;11.08;81.82
68075;BME280;54864;52.002;5.468;2023-03-14T04:49:20;98653.41;;;10.95;82.01
68075;BME280;54864;52.002;5.468;2023-03-14T04:50:21;98661.09;;;10.87;82.48
68075;BME280;54864;52.002;5.468;2023-03-14T04:51:22;98666.19;;;10.99;82.43
68075;BME280;54864;52.002;5.468;2023-03-14T04:52:23;98659.16;;;10.89;82.23
68075;BME280;54864;52.002;5.468;2023-03-14T04:53:25;98668.03;;;10.88;82.75
68075;BME280;54864;52.002;5.468;2023-03-14T04:54:26;98664.91;;;10.94;82.48
68075;BME280;54864;52.002;5.468;2023-03-14T04:55:28;98655.66;;;10.99;82.09
68075;BME280;54864;52.002;5.468;2023-03-14T04:56:28;98654.47;;;10.92;82.39
68075;BME280;54864;52.002;5.468;2023-03-14T04:57:30;98657.13;;;10.92;82.67
68075;BME280;54864;52.002;5.468;2023-03-14T04:58:31;98654.09;;;11.08;81.83
68075;BME280;54864;52.002;5.468;2023-03-14T04:59:32;98648.19;;;11.04;81.59
68075;BME280;54864;52.002;5.468;2023-03-14T05:00:33;98644.38;;;11.08;81.58
68075;BME280;54864;52.002;5.468;2023-03-14T05:01:35;98651.59;;;11.06;81.18
68075;BME280;54864;52.002;5.468;2023-03-14T05:02:37;98648.94;;;11.06;81.53
68075;BME280;54864;52.002;5.468;2023-03-14T05:03:39;98648.31;;;11.03;81.57
68075;BME280;54864;52.002;5.468;2023-03-14T05:04:40;98640.91;;;11.08;81.54
68075;BME280;54864;52.002;5.468;2023-03-14T05:05:42;98640.53;;;11.13;81.80
68075;BME280;54864;52.002;5.468;2023-03-14T05:06:43;98639.00;;;10.99;82.04
68075;BME280;54864;52.002;5.468;2023-03-14T05:07:44;98643.03;;;11.14;81.84
68075;BME280;54864;52.002;5.468;2023-03-14T05:08:45;98646.91;;;11.10;81.76
68075;BME280;54864;52.002;5.468;2023-03-14T05:09:47;98641.63;;;10.99;82.18
68075;BME280;54864;52.002;5.468;2023-03-14T05:10:52;98642.84;;;10.95;82.31
68075;BME280;54864;52.002;5.468;2023-03-14T05:11:54;98633.50;;;10.91;82.37
68075;BME280;54864;52.002;5.468;2023-03-14T05:12:54;98636.63;;;10.96;82.29
68075;BME280;54864;52.002;5.468;2023-03-14T05:13:56;98629.72;;;10.84;83.19
68075;BME280;54864;52.002;5.468;2023-03-14T05:14:57;98635.34;;;10.79;84.00
68075;BME280;54864;52.002;5.468;2023-03-14T05:16:06;98630.41;;;10.86;83.76
68075;BME280;54864;52.002;5.468;2023-03-14T05:17:07;98644.25;;;10.67;84.15
68075;BME280;54864;52.002;5.468;2023-03-14T05:18:10;98633.31;;;10.83;83.89
68075;BME280;54864;52.002;5.468;2023-03-14T05:19:11;98648.53;;;10.79;83.96
68075;BME280;54864;52.002;5.468;2023-03-14T05:20:13;98644.59;;;10.73;84.67
68075;BME280;54864;52.002;5.468;2023-03-14T05:21:14;98647.59;;;10.69;84.54
68075;BME280;54864;52.002;5.468;2023-03-14T05:22:15;98640.78;;;10.66;85.48
68075;BME280;54864;52.002;5.468;2023-03-14T05:23:16;98646.88;;;10.67;85.07
68075;BME280;54864;52.002;5.468;2023-03-14T05:24:18;98654.31;;;10.62;85.80
68075;BME280;54864;52.002;5.468;2023-03-14T05:25:18;98654.09;;;10.65;85.95
68075;BME280;54864;52.002;5.468;2023-03-14T05:26:20;98633.97;;;10.64;86.20
68075;BME280;54864;52.002;5.468;2023-03-14T05:27:21;98641.88;;;10.64;87.17
68075;BME280;54864;52.002;5.468;2023-03-14T05:28:22;98640.31;;;10.61;88.01
68075;BME280;54864;52.002;5.468;2023-03-14T05:29:23;98642.91;;;10.72;88.28
68075;BME280;54864;52.002;5.468;2023-03-14T05:30:25;98633.69;;;10.78;87.79
68075;BME280;54864;52.002;5.468;2023-03-14T05:31:26;98642.81;;;10.63;88.48